sensor_id;sensor_type;location;lat;lon;timestamp;P1;durP1;ratioP1;P2;durP2;ratioP2
4700;SDS011;8724;51.272;6.554;2022-07-23T00:01:53;3.97;;;3.57;;
4700;SDS011;8724;51.272;6.554;2022-07-23T00:04:22;3.73;;;3.27;;
4700;SDS011;8724;51.272;6.554;2022-07-23T00:06:51;9.33;;;3.83;;
4700;SDS011;8724;51.272;6.554;2022-07-23T00:09:20;5.00;;;4.03;;
4700;SDS011;8724;51.272;6.554;2022-07-23T00:11:49;4.97;;;3.77;;
4700;SDS011;8724;51.272;6.554;2022-07-23T00:14:17;6.17;;;4.00;;
4700;SDS011;8724;51.272;6.554;2022-07-23T00:16:45;4.20;;;3.50;;
4700;SDS011;8724;51.272;6.554;2022-07-23T00:19:13;3.80;;;3.33;;
4700;SDS011;8724;51.272;6.554;2022-07-23T00:21:42;4.20;;;3.80;;
4700;SDS011;8724;51.272;6.554;2022-07-23T00:24:12;4.10;;;3.70;;
4700;SDS011;8724;51.272;6.554;2022-07-23T00:26:40;3.90;;;3.50;;
4700;SDS011;8724;51.272;6.554;2022-07-23T00:29:08;4.10;;;2.93;;
4700;SDS011;8724;51.272;6.554;2022-07-23T00:31:37;6.60;;;3.73;;
4700;SDS011;8724;51.272;6.554;2022-07-23T00:34:05;5.33;;;4.10;;
4700;SDS011;8724;51.272;6.554;2022-07-23T00:36:34;4.30;;;3.40;;
4700;SDS011;8724;51.272;6.554;2022-07-23T00:39:02;5.37;;;3.40;;
4700;SDS011;8724;51.272;6.554;2022-07-23T00:41:32;3.73;;;3.10;;
4700;SDS011;8724;51.272;6.554;2022-07-23T00:44:17;5.03;;;3.37;;
4700;SDS011;8724;51.272;6.554;2022-07-23T00:46:47;5.30;;;3.40;;
4700;SDS011;8724;51.272;6.554;2022-07-23T00:49:19;5.40;;;3.70;;
4700;SDS011;8724;51.272;6.554;2022-07-23T00:51:48;3.70;;;3.37;;
4700;SDS011;8724;51.272;6.554;2022-07-23T00:54:17;3.60;;;3.23;;
4700;SDS011;8724;51.272;6.554;2022-07-23T00:56:48;3.30;;;3.00;;
4700;SDS011;8724;51.272;6.554;2022-07-23T00:59:17;4.17;;;3.37;;
4700;SDS011;8724;51.272;6.554;2022-07-23T01:01:46;3.90;;;3.50;;
4700;SDS011;8724;51.272;6.554;2022-07-23T01:04:15;7.93;;;4.53;;
4700;SDS011;8724;51.272;6.554;2022-07-23T01:06:45;5.77;;;3.97;;
4700;SDS011;8724;51.272;6.554;2022-07-23T01:09:13;5.57;;;3.97;;
4700;SDS011;8724;51.272;6.554;2022-07-23T01:11:42;4.40;;;4.00;;
4700;SDS011;8724;51.272;6.554;2022-07-23T01:14:13;9.73;;;4.53;;
4700;SDS011;8724;51.272;6.554;2022-07-23T01:16:43;4.60;;;4.13;;
4700;SDS011;8724;51.272;6.554;2022-07-23T01:19:13;5.60;;;5.07;;
4700;SDS011;8724;51.272;6.554;2022-07-23T01:21:42;5.90;;;4.60;;
4700;SDS011;8724;51.272;6.554;2022-07-23T01:24:13;6.50;;;4.30;;
4700;SDS011;8724;51.272;6.554;2022-07-23T01:26:53;5.63;;;4.20;;
4700;SDS011;8724;51.272;6.554;2022-07-23T01:29:21;4.50;;;3.37;;
4700;SDS011;8724;51.272;6.554;2022-07-23T01:31:51;4.30;;;3.90;;
4700;SDS011;8724;51.272;6.554;2022-07-23T01:34:19;7.73;;;4.13;;
4700;SDS011;8724;51.272;6.554;2022-07-23T01:36:48;4.43;;;4.00;;
4700;SDS011;8724;51.272;6.554;2022-07-23T01:39:18;5.53;;;4.63;;
4700;SDS011;8724;51.272;6.554;2022-07-23T01:41:49;4.70;;;4.10;;
4700;SDS011;8724;51.272;6.554;2022-07-23T01:44:19;4.90;;;3.70;;
4700;SDS011;8724;51.272;6.554;2022-07-23T01:46:47;4.80;;;4.40;;
4700;SDS011;8724;51.272;6.554;2022-07-23T01:49:17;5.07;;;4.20;;
4700;SDS011;8724;51.272;6.554;2022-07-23T01:51:46;4.23;;;3.90;;
4700;SDS011;8724;51.272;6.554;2022-07-23T01:54:40;3.87;;;3.33;;
4700;SDS011;8724;51.272;6.554;2022-07-23T01:57:09;10.43;;;4.00;;
4700;SDS011;8724;51.272;6.554;2022-07-23T01:59:38;3.90;;;3.60;;
4700;SDS011;8724;51.272;6.554;2022-07-23T02:02:08;9.00;;;5.50;;
4700;SDS011;8724;51.272;6.554;2022-07-23T02:04:36;5.37;;;3.80;;
4700;SDS011;8724;51.272;6.554;2022-07-23T02:07:05;4.07;;;3.77;;
4700;SDS011;8724;51.272;6.554;2022-07-23T02:09:33;6.10;;;3.80;;
4700;SDS011;8724;51.272;6.554;2022-07-23T02:12:03;6.57;;;4.23;;
4700;SDS011;8724;51.272;6.554;2022-07-23T02:14:32;3.93;;;3.73;;
4700;SDS011;8724;51.272;6.554;2022-07-23T02:17:04;3.93;;;3.37;;
4700;SDS011;8724;51.272;6.554;2022-07-23T02:19:34;5.27;;;3.87;;
4700;SDS011;8724;51.272;6.554;2022-07-23T02:22:02;4.60;;;3.47;;
4700;SDS011;8724;51.272;6.554;2022-07-23T02:24:31;7.53;;;4.00;;
4700;SDS011;8724;51.272;6.554;2022-07-23T02:26:59;5.90;;;3.40;;
4700;SDS011;8724;51.272;6.554;2022-07-23T02:29:29;4.33;;;3.53;;
4700;SDS011;8724;51.272;6.554;2022-07-23T02:31:57;4.33;;;3.80;;
4700;SDS011;8724;51.272;6.554;2022-07-23T02:34:26;4.27;;;3.60;;
4700;SDS011;8724;51.272;6.554;2022-07-23T02:36:54;4.60;;;3.60;;
4700;SDS011;8724;51.272;6.554;2022-07-23T02:39:24;3.73;;;3.43;;
4700;SDS011;8724;51.272;6.554;2022-07-23T02:41:52;3.70;;;3.40;;
4700;SDS011;8724;51.272;6.554;2022-07-23T02:44:21;3.37;;;3.07;;
4700;SDS011;8724;51.272;6.554;2022-07-23T02:46:53;3.97;;;3.50;;
4700;SDS011;8724;51.272;6.554;2022-07-23T02:49:21;4.17;;;3.87;;
4700;SDS011;8724;51.272;6.554;2022-07-23T02:51:50;4.77;;;4.07;;
4700;SDS011;8724;51.272;6.554;2022-07-23T02:54:19;3.80;;;3.43;;
4700;SDS011;8724;51.272;6.554;2022-07-23T02:56:47;4.10;;;3.70;;
4700;SDS011;8724;51.272;6.554;2022-07-23T02:59:17;4.00;;;3.60;;
4700;SDS011;8724;51.272;6.554;2022-07-23T03:01:46;4.13;;;3.73;;
4700;SDS011;8724;51.272;6.554;2022-07-23T03:04:18;5.40;;;4.90;;
4700;SDS011;8724;51.272;6.554;2022-07-23T03:06:46;7.57;;;4.37;;
4700;SDS011;8724;51.272;6.554;2022-07-23T03:09:15;6.00;;;4.47;;
4700;SDS011;8724;51.272;6.554;2022-07-23T03:11:43;4.57;;;4.20;;
4700;SDS011;8724;51.272;6.554;2022-07-23T03:14:12;9.20;;;4.50;;
4700;SDS011;8724;51.272;6.554;2022-07-23T03:16:42;10.97;;;5.10;;
4700;SDS011;8724;51.272;6.554;2022-07-23T03:19:11;4.60;;;4.20;;
4700;SDS011;8724;51.272;6.554;2022-07-23T03:21:42;4.33;;;4.03;;
4700;SDS011;8724;51.272;6.554;2022-07-23T03:24:11;4.30;;;4.00;;
4700;SDS011;8724;51.272;6.554;2022-07-23T03:26:40;5.13;;;4.67;;
4700;SDS011;8724;51.272;6.554;2022-07-23T03:29:08;7.23;;;4.50;;
4700;SDS011;8724;51.272;6.554;2022-07-23T03:31:37;7.00;;;5.13;;
4700;SDS011;8724;51.272;6.554;2022-07-23T03:34:07;11.40;;;4.67;;
4700;SDS011;8724;51.272;6.554;2022-07-23T03:36:35;4.50;;;4.20;;
4700;SDS011;8724;51.272;6.554;2022-07-23T03:39:06;5.00;;;4.33;;
4700;SDS011;8724;51.272;6.554;2022-07-23T03:41:40;5.27;;;4.50;;
4700;SDS011;8724;51.272;6.554;2022-07-23T03:44:10;4.00;;;3.60;;
4700;SDS011;8724;51.272;6.554;2022-07-23T03:46:38;4.43;;;4.03;;
4700;SDS011;8724;51.272;6.554;2022-07-23T03:49:07;5.90;;;4.97;;
4700;SDS011;8724;51.272;6.554;2022-07-23T03:51:35;20.37;;;16.13;;
4700;SDS011;8724;51.272;6.554;2022-07-23T03:54:04;9.57;;;6.87;;
4700;SDS011;8724;51.272;6.554;2022-07-23T03:56:34;13.97;;;10.57;;
4700;SDS011;8724;51.272;6.554;2022-07-23T03:59:03;11.20;;;8.70;;
4700;SDS011;8724;51.272;6.554;2022-07-23T04:01:32;6.27;;;5.67;;
4700;SDS011;8724;51.272;6.554;2022-07-23T04:04:00;5.80;;;4.77;;
4700;SDS011;8724;51.272;6.554;2022-07-23T04:06:29;5.20;;;4.80;;
4700;SDS011;8724;51.272;6.554;2022-07-23T04:08:59;8.07;;;4.50;;
4700;SDS011;8724;51.272;6.554;2022-07-23T04:11:30;4.80;;;4.37;;
4700;SDS011;8724;51.272;6.554;2022-07-23T04:14:00;6.33;;;4.60;;
4700;SDS011;8724;51.272;6.554;2022-07-23T04:16:29;4.80;;;4.10;;
4700;SDS011;8724;51.272;6.554;2022-07-23T04:18:58;5.13;;;3.90;;
4700;SDS011;8724;51.272;6.554;2022-07-23T04:21:32;4.93;;;4.53;;
4700;SDS011;8724;51.272;6.554;2022-07-23T04:24:01;5.23;;;4.83;;
4700;SDS011;8724;51.272;6.554;2022-07-23T04:26:30;5.13;;;3.90;;
4700;SDS011;8724;51.272;6.554;2022-07-23T04:28:59;7.40;;;5.00;;
4700;SDS011;8724;51.272;6.554;2022-07-23T04:31:28;5.77;;;4.70;;
4700;SDS011;8724;51.272;6.554;2022-07-23T04:34:03;5.90;;;4.70;;
4700;SDS011;8724;51.272;6.554;2022-07-23T04:36:32;6.73;;;5.20;;
4700;SDS011;8724;51.272;6.554;2022-07-23T04:39:00;12.50;;;11.20;;
4700;SDS011;8724;51.272;6.554;2022-07-23T04:41:31;15.17;;;13.47;;
4700;SDS011;8724;51.272;6.554;2022-07-23T04:44:00;12.70;;;7.30;;
4700;SDS011;8724;51.272;6.554;2022-07-23T04:46:29;5.83;;;5.27;;
4700;SDS011;8724;51.272;6.554;2022-07-23T04:48:58;7.23;;;5.23;;
4700;SDS011;8724;51.272;6.554;2022-07-23T04:51:27;5.80;;;5.00;;
4700;SDS011;8724;51.272;6.554;2022-07-23T04:53:55;6.03;;;5.50;;
4700;SDS011;8724;51.272;6.554;2022-07-23T04:56:24;6.90;;;5.37;;
4700;SDS011;8724;51.272;6.554;2022-07-23T04:58:53;7.13;;;5.97;;
4700;SDS011;8724;51.272;6.554;2022-07-23T05:01:22;7.13;;;5.43;;
4700;SDS011;8724;51.272;6.554;2022-07-23T05:03:50;5.57;;;4.90;;
4700;SDS011;8724;51.272;6.554;2022-07-23T05:06:19;5.57;;;5.10;;
4700;SDS011;8724;51.272;6.554;2022-07-23T05:08:47;5.07;;;4.53;;
4700;SDS011;8724;51.272;6.554;2022-07-23T05:11:15;6.30;;;5.70;;
4700;SDS011;8724;51.272;6.554;2022-07-23T05:13:49;6.10;;;5.60;;
4700;SDS011;8724;51.272;6.554;2022-07-23T05:16:21;4.90;;;4.50;;
4700;SDS011;8724;51.272;6.554;2022-07-23T05:18:52;8.10;;;6.00;;
4700;SDS011;8724;51.272;6.554;2022-07-23T05:21:20;6.80;;;4.97;;
4700;SDS011;8724;51.272;6.554;2022-07-23T05:23:48;8.00;;;6.70;;
4700;SDS011;8724;51.272;6.554;2022-07-23T05:26:17;8.07;;;5.70;;
4700;SDS011;8724;51.272;6.554;2022-07-23T05:28:48;22.50;;;18.70;;
4700;SDS011;8724;51.272;6.554;2022-07-23T05:31:18;25.53;;;21.83;;
4700;SDS011;8724;51.272;6.554;2022-07-23T05:33:48;13.33;;;11.80;;
4700;SDS011;8724;51.272;6.554;2022-07-23T05:36:17;10.20;;;7.90;;
4700;SDS011;8724;51.272;6.554;2022-07-23T05:38:56;7.33;;;6.63;;
4700;SDS011;8724;51.272;6.554;2022-07-23T05:41:27;6.20;;;5.70;;
4700;SDS011;8724;51.272;6.554;2022-07-23T05:43:56;5.10;;;4.60;;
4700;SDS011;8724;51.272;6.554;2022-07-23T05:46:26;5.30;;;4.80;;
4700;SDS011;8724;51.272;6.554;2022-07-23T05:49:00;5.37;;;4.87;;
4700;SDS011;8724;51.272;6.554;2022-07-23T05:51:47;4.83;;;4.33;;
4700;SDS011;8724;51.272;6.554;2022-07-23T05:54:25;5.27;;;4.67;;
4700;SDS011;8724;51.272;6.554;2022-07-23T05:56:53;5.83;;;4.20;;
4700;SDS011;8724;51.272;6.554;2022-07-23T05:59:22;5.73;;;5.17;;
4700;SDS011;8724;51.272;6.554;2022-07-23T06:01:50;6.20;;;5.50;;
4700;SDS011;8724;51.272;6.554;2022-07-23T06:04:20;4.90;;;4.40;;
4700;SDS011;8724;51.272;6.554;2022-07-23T06:07:08;4.50;;;4.10;;
4700;SDS011;8724;51.272;6.554;2022-07-23T06:09:37;4.30;;;4.00;;
4700;SDS011;8724;51.272;6.554;2022-07-23T06:12:06;5.87;;;5.37;;
4700;SDS011;8724;51.272;6.554;2022-07-23T06:14:35;5.93;;;5.13;;
4700;SDS011;8724;51.272;6.554;2022-07-23T06:17:03;17.00;;;14.57;;
4700;SDS011;8724;51.272;6.554;2022-07-23T06:19:33;20.07;;;15.97;;
4700;SDS011;8724;51.272;6.554;2022-07-23T06:22:02;13.70;;;10.40;;
4700;SDS011;8724;51.272;6.554;2022-07-23T06:24:30;8.37;;;7.53;;
4700;SDS011;8724;51.272;6.554;2022-07-23T06:26:59;9.20;;;7.20;;
4700;SDS011;8724;51.272;6.554;2022-07-23T06:29:27;6.03;;;5.53;;
4700;SDS011;8724;51.272;6.554;2022-07-23T06:31:55;5.67;;;5.17;;
4700;SDS011;8724;51.272;6.554;2022-07-23T06:34:25;7.20;;;5.57;;
4700;SDS011;8724;51.272;6.554;2022-07-23T06:36:56;8.63;;;7.27;;
4700;SDS011;8724;51.272;6.554;2022-07-23T06:39:25;8.33;;;6.07;;
4700;SDS011;8724;51.272;6.554;2022-07-23T06:41:54;9.93;;;8.93;;
4700;SDS011;8724;51.272;6.554;2022-07-23T06:44:36;10.30;;;7.50;;
4700;SDS011;8724;51.272;6.554;2022-07-23T06:47:07;9.03;;;6.50;;
4700;SDS011;8724;51.272;6.554;2022-07-23T06:49:35;7.50;;;6.77;;
4700;SDS011;8724;51.272;6.554;2022-07-23T06:52:05;8.70;;;7.80;;
4700;SDS011;8724;51.272;6.554;2022-07-23T06:54:34;9.33;;;7.50;;
4700;SDS011;8724;51.272;6.554;2022-07-23T06:57:02;12.53;;;9.43;;
4700;SDS011;8724;51.272;6.554;2022-07-23T06:59:31;13.53;;;7.07;;
4700;SDS011;8724;51.272;6.554;2022-07-23T07:02:02;13.73;;;12.17;;
4700;SDS011;8724;51.272;6.554;2022-07-23T07:04:31;11.13;;;9.83;;
4700;SDS011;8724;51.272;6.554;2022-07-23T07:06:59;10.70;;;9.70;;
4700;SDS011;8724;51.272;6.554;2022-07-23T07:09:29;14.03;;;12.63;;
4700;SDS011;8724;51.272;6.554;2022-07-23T07:11:57;14.00;;;11.50;;
4700;SDS011;8724;51.272;6.554;2022-07-23T07:14:27;11.37;;;10.03;;
4700;SDS011;8724;51.272;6.554;2022-07-23T07:16:55;17.20;;;10.87;;
4700;SDS011;8724;51.272;6.554;2022-07-23T07:19:24;32.87;;;29.37;;
4700;SDS011;8724;51.272;6.554;2022-07-23T07:21:52;28.57;;;21.67;;
4700;SDS011;8724;51.272;6.554;2022-07-23T07:24:20;18.87;;;13.57;;
4700;SDS011;8724;51.272;6.554;2022-07-23T07:26:56;15.07;;;9.70;;
4700;SDS011;8724;51.272;6.554;2022-07-23T07:29:25;16.00;;;12.07;;
4700;SDS011;8724;51.272;6.554;2022-07-23T07:31:54;19.30;;;12.40;;
4700;SDS011;8724;51.272;6.554;2022-07-23T07:34:22;19.23;;;13.80;;
4700;SDS011;8724;51.272;6.554;2022-07-23T07:36:51;16.30;;;12.13;;
4700;SDS011;8724;51.272;6.554;2022-07-23T07:39:19;16.40;;;10.03;;
4700;SDS011;8724;51.272;6.554;2022-07-23T07:41:47;12.97;;;8.33;;
4700;SDS011;8724;51.272;6.554;2022-07-23T07:44:17;13.03;;;8.63;;
4700;SDS011;8724;51.272;6.554;2022-07-23T07:46:45;7.40;;;6.23;;
4700;SDS011;8724;51.272;6.554;2022-07-23T07:49:14;18.90;;;7.77;;
4700;SDS011;8724;51.272;6.554;2022-07-23T07:51:47;7.43;;;6.67;;
4700;SDS011;8724;51.272;6.554;2022-07-23T07:54:17;9.07;;;6.37;;
4700;SDS011;8724;51.272;6.554;2022-07-23T07:56:46;7.40;;;6.30;;
4700;SDS011;8724;51.272;6.554;2022-07-23T07:59:15;7.03;;;5.33;;
4700;SDS011;8724;51.272;6.554;2022-07-23T08:01:45;6.97;;;5.13;;
4700;SDS011;8724;51.272;6.554;2022-07-23T08:04:13;9.67;;;5.70;;
4700;SDS011;8724;51.272;6.554;2022-07-23T08:06:41;4.43;;;4.07;;
4700;SDS011;8724;51.272;6.554;2022-07-23T08:09:10;6.00;;;3.90;;
4700;SDS011;8724;51.272;6.554;2022-07-23T08:11:38;9.27;;;7.73;;
4700;SDS011;8724;51.272;6.554;2022-07-23T08:14:07;28.37;;;23.30;;
4700;SDS011;8724;51.272;6.554;2022-07-23T08:16:37;9.83;;;7.97;;
4700;SDS011;8724;51.272;6.554;2022-07-23T08:19:27;12.10;;;5.43;;
4700;SDS011;8724;51.272;6.554;2022-07-23T08:21:55;7.73;;;5.17;;
4700;SDS011;8724;51.272;6.554;2022-07-23T08:24:23;7.20;;;4.40;;
4700;SDS011;8724;51.272;6.554;2022-07-23T08:26:52;5.87;;;4.50;;
4700;SDS011;8724;51.272;6.554;2022-07-23T08:29:20;5.80;;;4.20;;
4700;SDS011;8724;51.272;6.554;2022-07-23T08:31:53;3.80;;;3.47;;
4700;SDS011;8724;51.272;6.554;2022-07-23T08:34:21;7.27;;;4.73;;
4700;SDS011;8724;51.272;6.554;2022-07-23T08:36:51;3.67;;;3.30;;
4700;SDS011;8724;51.272;6.554;2022-07-23T08:39:19;6.57;;;3.40;;
4700;SDS011;8724;51.272;6.554;2022-07-23T08:41:48;6.27;;;3.10;;
4700;SDS011;8724;51.272;6.554;2022-07-23T08:44:17;3.90;;;3.17;;
4700;SDS011;8724;51.272;6.554;2022-07-23T08:46:46;3.90;;;3.17;;
4700;SDS011;8724;51.272;6.554;2022-07-23T08:49:15;3.67;;;3.37;;
4700;SDS011;8724;51.272;6.554;2022-07-23T08:51:43;3.17;;;2.13;;
4700;SDS011;8724;51.272;6.554;2022-07-23T08:54:13;6.63;;;2.93;;
4700;SDS011;8724;51.272;6.554;2022-07-23T08:56:42;4.00;;;2.90;;
4700;SDS011;8724;51.272;6.554;2022-07-23T08:59:10;3.13;;;2.73;;
4700;SDS011;8724;51.272;6.554;2022-07-23T09:01:40;4.70;;;4.17;;
4700;SDS011;8724;51.272;6.554;2022-07-23T09:04:09;3.70;;;3.40;;
4700;SDS011;8724;51.272;6.554;2022-07-23T09:06:38;7.37;;;4.00;;
4700;SDS011;8724;51.272;6.554;2022-07-23T09:09:17;4.37;;;3.07;;
4700;SDS011;8724;51.272;6.554;2022-07-23T09:11:46;4.00;;;3.10;;
4700;SDS011;8724;51.272;6.554;2022-07-23T09:14:14;6.50;;;3.13;;
4700;SDS011;8724;51.272;6.554;2022-07-23T09:16:42;2.27;;;2.07;;
4700;SDS011;8724;51.272;6.554;2022-07-23T09:19:11;3.00;;;2.47;;
4700;SDS011;8724;51.272;6.554;2022-07-23T09:21:40;2.23;;;2.07;;
4700;SDS011;8724;51.272;6.554;2022-07-23T09:24:09;2.53;;;2.33;;
4700;SDS011;8724;51.272;6.554;2022-07-23T09:26:41;3.77;;;2.80;;
4700;SDS011;8724;51.272;6.554;2022-07-23T09:29:13;3.30;;;2.70;;
4700;SDS011;8724;51.272;6.554;2022-07-23T09:31:44;2.70;;;2.37;;
4700;SDS011;8724;51.272;6.554;2022-07-23T09:34:16;4.03;;;2.80;;
4700;SDS011;8724;51.272;6.554;2022-07-23T09:36:50;5.83;;;2.73;;
4700;SDS011;8724;51.272;6.554;2022-07-23T09:39:26;3.00;;;2.60;;
4700;SDS011;8724;51.272;6.554;2022-07-23T09:41:57;3.47;;;3.17;;
4700;SDS011;8724;51.272;6.554;2022-07-23T09:44:40;10.43;;;9.23;;
4700;SDS011;8724;51.272;6.554;2022-07-23T09:47:10;11.33;;;9.30;;
4700;SDS011;8724;51.272;6.554;2022-07-23T09:49:38;8.70;;;7.43;;
4700;SDS011;8724;51.272;6.554;2022-07-23T09:52:06;5.00;;;4.00;;
4700;SDS011;8724;51.272;6.554;2022-07-23T09:54:36;3.17;;;2.70;;
4700;SDS011;8724;51.272;6.554;2022-07-23T09:57:08;2.77;;;2.30;;
4700;SDS011;8724;51.272;6.554;2022-07-23T09:59:41;3.23;;;2.50;;
4700;SDS011;8724;51.272;6.554;2022-07-23T10:02:12;3.60;;;2.50;;
4700;SDS011;8724;51.272;6.554;2022-07-23T10:05:08;3.33;;;2.23;;
4700;SDS011;8724;51.272;6.554;2022-07-23T10:07:55;2.73;;;2.10;;
4700;SDS011;8724;51.272;6.554;2022-07-23T10:10:43;1.60;;;1.50;;
4700;SDS011;8724;51.272;6.554;2022-07-23T10:13:33;3.07;;;2.00;;
4700;SDS011;8724;51.272;6.554;2022-07-23T10:16:44;3.13;;;2.07;;
4700;SDS011;8724;51.272;6.554;2022-07-23T10:19:13;2.30;;;1.40;;
4700;SDS011;8724;51.272;6.554;2022-07-23T10:21:42;2.47;;;2.00;;
4700;SDS011;8724;51.272;6.554;2022-07-23T10:24:17;2.70;;;2.00;;
4700;SDS011;8724;51.272;6.554;2022-07-23T10:26:53;3.23;;;2.50;;
4700;SDS011;8724;51.272;6.554;2022-07-23T10:29:34;4.90;;;2.00;;
4700;SDS011;8724;51.272;6.554;2022-07-23T10:32:14;2.30;;;2.10;;
4700;SDS011;8724;51.272;6.554;2022-07-23T10:34:52;1.57;;;1.37;;
4700;SDS011;8724;51.272;6.554;2022-07-23T10:37:36;1.53;;;1.40;;
4700;SDS011;8724;51.272;6.554;2022-07-23T10:40:10;1.63;;;1.40;;
4700;SDS011;8724;51.272;6.554;2022-07-23T10:42:40;3.70;;;2.83;;
4700;SDS011;8724;51.272;6.554;2022-07-23T10:51:07;5.03;;;3.47;;
4700;SDS011;8724;51.272;6.554;2022-07-23T10:53:52;2.80;;;2.60;;
4700;SDS011;8724;51.272;6.554;2022-07-23T10:59:18;3.03;;;2.70;;
4700;SDS011;8724;51.272;6.554;2022-07-23T11:01:48;2.83;;;1.87;;
4700;SDS011;8724;51.272;6.554;2022-07-23T11:04:18;2.20;;;1.43;;
4700;SDS011;8724;51.272;6.554;2022-07-23T11:09:38;2.23;;;2.00;;
4700;SDS011;8724;51.272;6.554;2022-07-23T11:15:03;1.50;;;1.40;;
4700;SDS011;8724;51.272;6.554;2022-07-23T11:17:36;1.50;;;1.40;;
4700;SDS011;8724;51.272;6.554;2022-07-23T11:20:13;2.00;;;1.47;;
4700;SDS011;8724;51.272;6.554;2022-07-23T11:22:49;1.40;;;1.30;;
4700;SDS011;8724;51.272;6.554;2022-07-23T11:25:30;2.60;;;1.53;;
4700;SDS011;8724;51.272;6.554;2022-07-23T11:28:16;1.20;;;1.07;;
4700;SDS011;8724;51.272;6.554;2022-07-23T11:30:47;2.30;;;1.80;;
4700;SDS011;8724;51.272;6.554;2022-07-23T11:33:18;3.63;;;1.50;;
4700;SDS011;8724;51.272;6.554;2022-07-23T11:35:49;1.93;;;1.67;;
4700;SDS011;8724;51.272;6.554;2022-07-23T11:38:30;2.30;;;1.37;;
4700;SDS011;8724;51.272;6.554;2022-07-23T11:40:59;2.03;;;1.50;;
4700;SDS011;8724;51.272;6.554;2022-07-23T11:43:28;2.20;;;1.37;;
4700;SDS011;8724;51.272;6.554;2022-07-23T11:45:57;2.13;;;1.43;;
4700;SDS011;8724;51.272;6.554;2022-07-23T11:48:29;1.73;;;1.20;;
4700;SDS011;8724;51.272;6.554;2022-07-23T11:51:06;1.00;;;1.00;;
4700;SDS011;8724;51.272;6.554;2022-07-23T11:53:34;1.43;;;1.20;;
4700;SDS011;8724;51.272;6.554;2022-07-23T11:56:03;3.00;;;1.50;;
4700;SDS011;8724;51.272;6.554;2022-07-23T11:58:32;1.20;;;1.10;;
4700;SDS011;8724;51.272;6.554;2022-07-23T12:01:02;1.60;;;1.50;;
4700;SDS011;8724;51.272;6.554;2022-07-23T12:03:32;1.37;;;1.20;;
4700;SDS011;8724;51.272;6.554;2022-07-23T12:06:00;1.43;;;1.33;;
4700;SDS011;8724;51.272;6.554;2022-07-23T12:08:29;1.80;;;1.60;;
4700;SDS011;8724;51.272;6.554;2022-07-23T12:10:57;1.40;;;1.30;;
4700;SDS011;8724;51.272;6.554;2022-07-23T12:13:26;1.57;;;1.37;;
4700;SDS011;8724;51.272;6.554;2022-07-23T12:15:56;3.47;;;1.60;;
4700;SDS011;8724;51.272;6.554;2022-07-23T12:18:26;1.63;;;1.53;;
4700;SDS011;8724;51.272;6.554;2022-07-23T12:20:56;2.30;;;1.27;;
4700;SDS011;8724;51.272;6.554;2022-07-23T12:23:30;2.93;;;1.60;;
4700;SDS011;8724;51.272;6.554;2022-07-23T12:26:00;1.70;;;1.60;;
4700;SDS011;8724;51.272;6.554;2022-07-23T12:28:30;2.30;;;2.00;;
4700;SDS011;8724;51.272;6.554;2022-07-23T12:31:00;2.10;;;1.80;;
4700;SDS011;8724;51.272;6.554;2022-07-23T12:33:29;1.40;;;1.30;;
4700;SDS011;8724;51.272;6.554;2022-07-23T12:36:01;1.80;;;1.70;;
4700;SDS011;8724;51.272;6.554;2022-07-23T12:38:36;7.77;;;6.50;;
4700;SDS011;8724;51.272;6.554;2022-07-23T12:41:06;11.10;;;9.57;;
4700;SDS011;8724;51.272;6.554;2022-07-23T12:43:36;8.17;;;6.93;;
4700;SDS011;8724;51.272;6.554;2022-07-23T12:46:05;6.07;;;5.47;;
4700;SDS011;8724;51.272;6.554;2022-07-23T12:48:35;4.10;;;3.70;;
4700;SDS011;8724;51.272;6.554;2022-07-23T12:51:07;2.50;;;2.30;;
4700;SDS011;8724;51.272;6.554;2022-07-23T12:53:47;2.00;;;1.90;;
4700;SDS011;8724;51.272;6.554;2022-07-23T12:56:17;3.33;;;2.70;;
4700;SDS011;8724;51.272;6.554;2022-07-23T12:58:49;2.13;;;1.93;;
4700;SDS011;8724;51.272;6.554;2022-07-23T13:01:22;1.80;;;1.70;;
4700;SDS011;8724;51.272;6.554;2022-07-23T13:03:57;1.90;;;1.80;;
4700;SDS011;8724;51.272;6.554;2022-07-23T13:06:29;2.03;;;1.83;;
4700;SDS011;8724;51.272;6.554;2022-07-23T13:09:00;2.90;;;1.70;;
4700;SDS011;8724;51.272;6.554;2022-07-23T13:11:31;2.10;;;2.00;;
4700;SDS011;8724;51.272;6.554;2022-07-23T13:14:00;2.00;;;1.80;;
4700;SDS011;8724;51.272;6.554;2022-07-23T13:16:32;2.83;;;1.83;;
4700;SDS011;8724;51.272;6.554;2022-07-23T13:19:01;2.50;;;2.07;;
4700;SDS011;8724;51.272;6.554;2022-07-23T13:21:31;2.00;;;1.70;;
4700;SDS011;8724;51.272;6.554;2022-07-23T13:24:00;1.77;;;1.63;;
4700;SDS011;8724;51.272;6.554;2022-07-23T13:26:34;3.63;;;1.80;;
4700;SDS011;8724;51.272;6.554;2022-07-23T13:29:03;1.90;;;1.80;;
4700;SDS011;8724;51.272;6.554;2022-07-23T13:31:35;2.10;;;1.90;;
4700;SDS011;8724;51.272;6.554;2022-07-23T13:34:05;1.77;;;1.67;;
4700;SDS011;8724;51.272;6.554;2022-07-23T13:36:35;1.60;;;1.50;;
4700;SDS011;8724;51.272;6.554;2022-07-23T13:39:04;1.43;;;1.33;;
4700;SDS011;8724;51.272;6.554;2022-07-23T13:41:53;3.07;;;1.50;;
4700;SDS011;8724;51.272;6.554;2022-07-23T13:44:22;1.50;;;1.40;;
4700;SDS011;8724;51.272;6.554;2022-07-23T13:46:53;2.27;;;2.10;;
4700;SDS011;8724;51.272;6.554;2022-07-23T13:49:21;2.27;;;2.07;;
4700;SDS011;8724;51.272;6.554;2022-07-23T13:51:51;2.33;;;2.13;;
4700;SDS011;8724;51.272;6.554;2022-07-23T13:54:20;2.40;;;2.20;;
4700;SDS011;8724;51.272;6.554;2022-07-23T13:56:48;2.03;;;1.83;;
4700;SDS011;8724;51.272;6.554;2022-07-23T13:59:16;2.37;;;1.90;;
4700;SDS011;8724;51.272;6.554;2022-07-23T14:01:45;2.33;;;2.13;;
4700;SDS011;8724;51.272;6.554;2022-07-23T14:04:33;1.90;;;1.80;;
4700;SDS011;8724;51.272;6.554;2022-07-23T14:07:03;2.43;;;2.00;;
4700;SDS011;8724;51.272;6.554;2022-07-23T14:09:32;1.67;;;1.57;;
4700;SDS011;8724;51.272;6.554;2022-07-23T14:12:01;3.17;;;2.00;;
4700;SDS011;8724;51.272;6.554;2022-07-23T14:14:30;2.10;;;1.90;;
4700;SDS011;8724;51.272;6.554;2022-07-23T14:16:58;2.20;;;1.70;;
4700;SDS011;8724;51.272;6.554;2022-07-23T14:19:27;5.13;;;4.63;;
4700;SDS011;8724;51.272;6.554;2022-07-23T14:21:56;4.50;;;4.10;;
4700;SDS011;8724;51.272;6.554;2022-07-23T14:24:26;3.90;;;2.30;;
4700;SDS011;8724;51.272;6.554;2022-07-23T14:26:59;3.33;;;2.47;;
4700;SDS011;8724;51.272;6.554;2022-07-23T14:29:29;1.90;;;1.80;;
4700;SDS011;8724;51.272;6.554;2022-07-23T14:31:58;1.87;;;1.77;;
4700;SDS011;8724;51.272;6.554;2022-07-23T14:34:27;2.00;;;1.70;;
4700;SDS011;8724;51.272;6.554;2022-07-23T14:36:57;1.90;;;1.80;;
4700;SDS011;8724;51.272;6.554;2022-07-23T14:39:28;5.07;;;2.00;;
4700;SDS011;8724;51.272;6.554;2022-07-23T14:41:57;2.20;;;2.00;;
4700;SDS011;8724;51.272;6.554;2022-07-23T14:44:25;2.50;;;2.23;;
4700;SDS011;8724;51.272;6.554;2022-07-23T14:46:54;2.40;;;1.53;;
4700;SDS011;8724;51.272;6.554;2022-07-23T14:49:22;2.10;;;1.90;;
4700;SDS011;8724;51.272;6.554;2022-07-23T14:51:53;3.20;;;2.13;;
4700;SDS011;8724;51.272;6.554;2022-07-23T14:54:22;2.30;;;2.10;;
4700;SDS011;8724;51.272;6.554;2022-07-23T14:56:54;2.23;;;2.03;;
4700;SDS011;8724;51.272;6.554;2022-07-23T14:59:24;2.20;;;2.00;;
4700;SDS011;8724;51.272;6.554;2022-07-23T15:01:53;2.10;;;1.73;;
4700;SDS011;8724;51.272;6.554;2022-07-23T15:04:22;2.20;;;1.93;;
4700;SDS011;8724;51.272;6.554;2022-07-23T15:07:06;1.70;;;1.60;;
4700;SDS011;8724;51.272;6.554;2022-07-23T15:09:35;1.70;;;1.60;;
4700;SDS011;8724;51.272;6.554;2022-07-23T15:12:05;2.40;;;2.20;;
4700;SDS011;8724;51.272;6.554;2022-07-23T15:14:38;1.80;;;1.70;;
4700;SDS011;8724;51.272;6.554;2022-07-23T15:17:06;2.40;;;1.67;;
4700;SDS011;8724;51.272;6.554;2022-07-23T15:19:36;2.97;;;1.47;;
4700;SDS011;8724;51.272;6.554;2022-07-23T15:22:04;1.67;;;1.53;;
4700;SDS011;8724;51.272;6.554;2022-07-23T15:24:34;2.30;;;2.10;;
4700;SDS011;8724;51.272;6.554;2022-07-23T15:27:02;2.00;;;1.80;;
4700;SDS011;8724;51.272;6.554;2022-07-23T15:29:32;2.60;;;1.90;;
4700;SDS011;8724;51.272;6.554;2022-07-23T15:32:00;1.53;;;1.43;;
4700;SDS011;8724;51.272;6.554;2022-07-23T15:34:29;2.23;;;2.00;;
4700;SDS011;8724;51.272;6.554;2022-07-23T15:36:59;2.53;;;1.93;;
4700;SDS011;8724;51.272;6.554;2022-07-23T15:39:37;2.00;;;1.87;;
4700;SDS011;8724;51.272;6.554;2022-07-23T15:42:05;2.93;;;1.97;;
4700;SDS011;8724;51.272;6.554;2022-07-23T15:44:42;1.93;;;1.80;;
4700;SDS011;8724;51.272;6.554;2022-07-23T15:47:13;1.53;;;1.43;;
4700;SDS011;8724;51.272;6.554;2022-07-23T15:49:43;2.43;;;2.07;;